Tarrants, Missouri
Current Conditions -  °F | °C
As of 5:15 PM on Wednesday 22 Oct 2014 (Local Time) from KPPQ Reporting Station
Clear Clear  
Wind Chill: 62°   Ceiling: Unl
Heat Index: 62°   Visibility: 10mi
Dew Point: 42°   Wind: 5mph
Humidity: 48%   Direction: 120°ESE
Pressure: 30.21"   Gusts: NA
Location:  39.321°N, 91.1912°W
Report Text: KPPQ 222215Z AUTO 12004KT 10SM CLR 17/05 A3021 RMK AO2 T01660054
Loading
Personal Weather Stations






























Interactive Weather Map
Tropical Storm Tracking
New forecast layout! Learn more

10-Day Weather Forecast

Advertisements
Track Severe Weather on mobile